sensor_id;sensor_type;location;lat;lon;timestamp;P1;durP1;ratioP1;P2;durP2;ratioP2
77222;SDS011;66218;48.928;9.140;2023-05-06T00:02:03;3.97;;;1.63;;
77222;SDS011;66218;48.928;9.140;2023-05-06T00:04:28;4.20;;;1.38;;
77222;SDS011;66218;48.928;9.140;2023-05-06T00:06:54;4.15;;;1.85;;
77222;SDS011;66218;48.928;9.140;2023-05-06T00:09:20;3.67;;;1.73;;
77222;SDS011;66218;48.928;9.140;2023-05-06T00:11:48;6.32;;;1.90;;
77222;SDS011;66218;48.928;9.140;2023-05-06T00:14:14;3.42;;;1.98;;
77222;SDS011;66218;48.928;9.140;2023-05-06T00:16:39;3.67;;;1.67;;
77222;SDS011;66218;48.928;9.140;2023-05-06T00:19:04;3.67;;;2.13;;
77222;SDS011;66218;48.928;9.140;2023-05-06T00:21:30;3.20;;;1.65;;
77222;SDS011;66218;48.928;9.140;2023-05-06T00:23:56;3.47;;;1.80;;
77222;SDS011;66218;48.928;9.140;2023-05-06T00:26:21;5.93;;;2.72;;
77222;SDS011;66218;48.928;9.140;2023-05-06T00:28:46;3.65;;;1.65;;
77222;SDS011;66218;48.928;9.140;2023-05-06T00:31:11;3.22;;;1.55;;
77222;SDS011;66218;48.928;9.140;2023-05-06T00:33:37;2.92;;;1.90;;
77222;SDS011;66218;48.928;9.140;2023-05-06T00:36:02;2.38;;;1.48;;
77222;SDS011;66218;48.928;9.140;2023-05-06T00:38:28;3.72;;;1.95;;
77222;SDS011;66218;48.928;9.140;2023-05-06T00:40:53;5.82;;;2.00;;
77222;SDS011;66218;48.928;9.140;2023-05-06T00:43:18;5.82;;;1.98;;
77222;SDS011;66218;48.928;9.140;2023-05-06T00:45:43;3.75;;;1.73;;
77222;SDS011;66218;48.928;9.140;2023-05-06T00:48:09;3.03;;;1.83;;
77222;SDS011;66218;48.928;9.140;2023-05-06T00:50:34;3.65;;;2.10;;
77222;SDS011;66218;48.928;9.140;2023-05-06T00:53:02;5.38;;;2.10;;
77222;SDS011;66218;48.928;9.140;2023-05-06T00:55:29;3.17;;;1.77;;
77222;SDS011;66218;48.928;9.140;2023-05-06T00:57:55;4.50;;;1.95;;
77222;SDS011;66218;48.928;9.140;2023-05-06T01:00:21;5.20;;;2.22;;
77222;SDS011;66218;48.928;9.140;2023-05-06T01:02:47;6.57;;;1.85;;
77222;SDS011;66218;48.928;9.140;2023-05-06T01:05:13;3.38;;;1.85;;
77222;SDS011;66218;48.928;9.140;2023-05-06T01:10:35;4.88;;;1.73;;
77222;SDS011;66218;48.928;9.140;2023-05-06T01:16:03;3.85;;;1.80;;
77222;SDS011;66218;48.928;9.140;2023-05-06T01:18:30;4.80;;;2.20;;
77222;SDS011;66218;48.928;9.140;2023-05-06T01:20:56;5.55;;;2.30;;
77222;SDS011;66218;48.928;9.140;2023-05-06T01:23:23;4.53;;;1.75;;
77222;SDS011;66218;48.928;9.140;2023-05-06T01:25:49;4.18;;;2.17;;
77222;SDS011;66218;48.928;9.140;2023-05-06T01:28:14;4.50;;;1.60;;
77222;SDS011;66218;48.928;9.140;2023-05-06T01:30:42;3.65;;;2.13;;
77222;SDS011;66218;48.928;9.140;2023-05-06T01:33:18;4.45;;;1.77;;
77222;SDS011;66218;48.928;9.140;2023-05-06T01:35:53;4.97;;;2.00;;
77222;SDS011;66218;48.928;9.140;2023-05-06T01:41:30;4.15;;;2.03;;
77222;SDS011;66218;48.928;9.140;2023-05-06T01:43:58;7.05;;;2.70;;
77222;SDS011;66218;48.928;9.140;2023-05-06T01:46:24;4.47;;;2.28;;
77222;SDS011;66218;48.928;9.140;2023-05-06T01:51:20;3.88;;;2.08;;
77222;SDS011;66218;48.928;9.140;2023-05-06T01:53:46;4.07;;;1.85;;
77222;SDS011;66218;48.928;9.140;2023-05-06T01:56:11;6.57;;;2.60;;
77222;SDS011;66218;48.928;9.140;2023-05-06T01:58:37;2.83;;;1.85;;
77222;SDS011;66218;48.928;9.140;2023-05-06T02:01:02;3.97;;;2.08;;
77222;SDS011;66218;48.928;9.140;2023-05-06T02:03:27;3.88;;;1.83;;
77222;SDS011;66218;48.928;9.140;2023-05-06T02:05:53;2.53;;;1.52;;
77222;SDS011;66218;48.928;9.140;2023-05-06T02:08:18;4.03;;;2.30;;
77222;SDS011;66218;48.928;9.140;2023-05-06T02:10:43;2.25;;;1.63;;
77222;SDS011;66218;48.928;9.140;2023-05-06T02:13:09;4.57;;;2.15;;
77222;SDS011;66218;48.928;9.140;2023-05-06T02:15:35;4.60;;;2.10;;
77222;SDS011;66218;48.928;9.140;2023-05-06T02:18:00;4.15;;;2.28;;
77222;SDS011;66218;48.928;9.140;2023-05-06T02:20:26;5.72;;;2.38;;
77222;SDS011;66218;48.928;9.140;2023-05-06T02:22:51;5.45;;;2.53;;
77222;SDS011;66218;48.928;9.140;2023-05-06T02:25:16;3.15;;;2.28;;
77222;SDS011;66218;48.928;9.140;2023-05-06T02:27:42;5.38;;;2.20;;
77222;SDS011;66218;48.928;9.140;2023-05-06T02:30:09;8.23;;;2.35;;
77222;SDS011;66218;48.928;9.140;2023-05-06T02:32:35;4.78;;;2.35;;
77222;SDS011;66218;48.928;9.140;2023-05-06T02:35:00;7.95;;;2.72;;
77222;SDS011;66218;48.928;9.140;2023-05-06T02:37:25;4.97;;;2.42;;
77222;SDS011;66218;48.928;9.140;2023-05-06T02:39:51;3.70;;;2.20;;
77222;SDS011;66218;48.928;9.140;2023-05-06T02:42:16;5.32;;;2.35;;
77222;SDS011;66218;48.928;9.140;2023-05-06T02:44:41;7.18;;;2.60;;
77222;SDS011;66218;48.928;9.140;2023-05-06T02:47:06;7.75;;;2.85;;
77222;SDS011;66218;48.928;9.140;2023-05-06T02:49:32;4.47;;;2.72;;
77222;SDS011;66218;48.928;9.140;2023-05-06T02:51:57;5.75;;;2.83;;
77222;SDS011;66218;48.928;9.140;2023-05-06T02:54:22;4.18;;;2.25;;
77222;SDS011;66218;48.928;9.140;2023-05-06T02:56:48;5.55;;;2.42;;
77222;SDS011;66218;48.928;9.140;2023-05-06T02:59:13;5.72;;;2.47;;
77222;SDS011;66218;48.928;9.140;2023-05-06T03:01:38;5.20;;;2.80;;
77222;SDS011;66218;48.928;9.140;2023-05-06T03:04:04;4.45;;;2.55;;
77222;SDS011;66218;48.928;9.140;2023-05-06T03:06:29;4.00;;;2.72;;
77222;SDS011;66218;48.928;9.140;2023-05-06T03:08:55;5.57;;;2.35;;
77222;SDS011;66218;48.928;9.140;2023-05-06T03:11:21;5.32;;;2.65;;
77222;SDS011;66218;48.928;9.140;2023-05-06T03:13:46;4.53;;;2.45;;
77222;SDS011;66218;48.928;9.140;2023-05-06T03:16:12;6.82;;;3.28;;
77222;SDS011;66218;48.928;9.140;2023-05-06T03:18:38;3.88;;;2.40;;
77222;SDS011;66218;48.928;9.140;2023-05-06T03:21:03;7.55;;;3.53;;
77222;SDS011;66218;48.928;9.140;2023-05-06T03:23:29;8.93;;;3.28;;
77222;SDS011;66218;48.928;9.140;2023-05-06T03:25:54;5.13;;;2.83;;
77222;SDS011;66218;48.928;9.140;2023-05-06T03:28:19;4.60;;;2.87;;
77222;SDS011;66218;48.928;9.140;2023-05-06T03:30:45;6.20;;;3.47;;
77222;SDS011;66218;48.928;9.140;2023-05-06T03:33:10;6.50;;;3.53;;
77222;SDS011;66218;48.928;9.140;2023-05-06T03:35:36;6.10;;;3.40;;
77222;SDS011;66218;48.928;9.140;2023-05-06T03:38:01;8.00;;;3.63;;
77222;SDS011;66218;48.928;9.140;2023-05-06T03:40:27;8.45;;;4.10;;
77222;SDS011;66218;48.928;9.140;2023-05-06T03:42:52;10.63;;;4.15;;
77222;SDS011;66218;48.928;9.140;2023-05-06T03:45:17;7.57;;;4.43;;
77222;SDS011;66218;48.928;9.140;2023-05-06T03:47:43;6.15;;;3.88;;
77222;SDS011;66218;48.928;9.140;2023-05-06T03:50:08;8.70;;;3.60;;
77222;SDS011;66218;48.928;9.140;2023-05-06T03:52:34;7.88;;;4.65;;
77222;SDS011;66218;48.928;9.140;2023-05-06T03:54:59;6.38;;;3.80;;
77222;SDS011;66218;48.928;9.140;2023-05-06T03:57:24;7.88;;;4.38;;
77222;SDS011;66218;48.928;9.140;2023-05-06T03:59:50;6.57;;;4.00;;
77222;SDS011;66218;48.928;9.140;2023-05-06T04:02:15;8.93;;;3.95;;
77222;SDS011;66218;48.928;9.140;2023-05-06T04:04:40;10.07;;;4.82;;
77222;SDS011;66218;48.928;9.140;2023-05-06T04:07:06;7.77;;;3.47;;
77222;SDS011;66218;48.928;9.140;2023-05-06T04:09:31;8.50;;;3.72;;
77222;SDS011;66218;48.928;9.140;2023-05-06T04:11:57;5.85;;;3.28;;
77222;SDS011;66218;48.928;9.140;2023-05-06T04:14:22;7.28;;;4.43;;
77222;SDS011;66218;48.928;9.140;2023-05-06T04:16:48;6.65;;;3.45;;
77222;SDS011;66218;48.928;9.140;2023-05-06T04:19:13;8.98;;;4.10;;
77222;SDS011;66218;48.928;9.140;2023-05-06T04:21:38;9.75;;;4.10;;
77222;SDS011;66218;48.928;9.140;2023-05-06T04:24:04;9.70;;;5.13;;
77222;SDS011;66218;48.928;9.140;2023-05-06T04:26:29;8.85;;;4.20;;
77222;SDS011;66218;48.928;9.140;2023-05-06T04:28:55;10.85;;;4.40;;
77222;SDS011;66218;48.928;9.140;2023-05-06T04:31:20;8.15;;;4.05;;
77222;SDS011;66218;48.928;9.140;2023-05-06T04:36:12;8.20;;;3.78;;
77222;SDS011;66218;48.928;9.140;2023-05-06T04:38:37;9.27;;;3.55;;
77222;SDS011;66218;48.928;9.140;2023-05-06T04:41:03;9.15;;;4.68;;
77222;SDS011;66218;48.928;9.140;2023-05-06T04:43:29;6.93;;;4.03;;
77222;SDS011;66218;48.928;9.140;2023-05-06T04:45:55;6.32;;;3.40;;
77222;SDS011;66218;48.928;9.140;2023-05-06T04:48:20;6.97;;;3.78;;
77222;SDS011;66218;48.928;9.140;2023-05-06T04:50:46;6.03;;;3.90;;
77222;SDS011;66218;48.928;9.140;2023-05-06T04:53:12;5.90;;;3.35;;
77222;SDS011;66218;48.928;9.140;2023-05-06T04:55:38;4.00;;;2.88;;
77222;SDS011;66218;48.928;9.140;2023-05-06T04:58:04;6.78;;;3.33;;
77222;SDS011;66218;48.928;9.140;2023-05-06T05:00:29;5.63;;;3.17;;
77222;SDS011;66218;48.928;9.140;2023-05-06T05:02:54;7.47;;;4.00;;
77222;SDS011;66218;48.928;9.140;2023-05-06T05:05:20;7.07;;;3.35;;
77222;SDS011;66218;48.928;9.140;2023-05-06T05:07:49;6.40;;;3.67;;
77222;SDS011;66218;48.928;9.140;2023-05-06T05:10:14;5.75;;;3.55;;
77222;SDS011;66218;48.928;9.140;2023-05-06T05:12:40;7.43;;;3.70;;
77222;SDS011;66218;48.928;9.140;2023-05-06T05:15:05;5.20;;;3.30;;
77222;SDS011;66218;48.928;9.140;2023-05-06T05:17:31;7.68;;;3.25;;
77222;SDS011;66218;48.928;9.140;2023-05-06T05:19:56;5.53;;;2.97;;
77222;SDS011;66218;48.928;9.140;2023-05-06T05:22:21;7.07;;;3.08;;
77222;SDS011;66218;48.928;9.140;2023-05-06T05:24:47;7.47;;;3.80;;
77222;SDS011;66218;48.928;9.140;2023-05-06T05:27:12;7.25;;;3.92;;
77222;SDS011;66218;48.928;9.140;2023-05-06T05:29:37;6.32;;;3.55;;
77222;SDS011;66218;48.928;9.140;2023-05-06T05:32:02;5.95;;;3.47;;
77222;SDS011;66218;48.928;9.140;2023-05-06T05:34:28;6.50;;;3.45;;
77222;SDS011;66218;48.928;9.140;2023-05-06T05:36:54;7.47;;;4.05;;
77222;SDS011;66218;48.928;9.140;2023-05-06T05:39:21;6.88;;;3.63;;
77222;SDS011;66218;48.928;9.140;2023-05-06T05:41:46;9.57;;;3.17;;
77222;SDS011;66218;48.928;9.140;2023-05-06T05:44:12;5.90;;;3.75;;
77222;SDS011;66218;48.928;9.140;2023-05-06T05:46:37;8.18;;;3.97;;
77222;SDS011;66218;48.928;9.140;2023-05-06T05:49:02;6.35;;;3.58;;
77222;SDS011;66218;48.928;9.140;2023-05-06T05:51:27;6.38;;;3.60;;
77222;SDS011;66218;48.928;9.140;2023-05-06T05:53:53;6.35;;;4.13;;
77222;SDS011;66218;48.928;9.140;2023-05-06T05:56:18;6.53;;;4.32;;
77222;SDS011;66218;48.928;9.140;2023-05-06T05:58:43;6.75;;;3.97;;
77222;SDS011;66218;48.928;9.140;2023-05-06T06:01:09;8.43;;;3.47;;
77222;SDS011;66218;48.928;9.140;2023-05-06T06:03:34;7.30;;;3.83;;
77222;SDS011;66218;48.928;9.140;2023-05-06T06:06:00;8.32;;;3.60;;
77222;SDS011;66218;48.928;9.140;2023-05-06T06:08:25;9.10;;;4.07;;
77222;SDS011;66218;48.928;9.140;2023-05-06T06:10:50;6.07;;;3.42;;
77222;SDS011;66218;48.928;9.140;2023-05-06T06:13:16;6.45;;;3.50;;
77222;SDS011;66218;48.928;9.140;2023-05-06T06:15:41;5.55;;;2.88;;
77222;SDS011;66218;48.928;9.140;2023-05-06T06:18:07;8.20;;;3.58;;
77222;SDS011;66218;48.928;9.140;2023-05-06T06:20:33;5.30;;;2.92;;
77222;SDS011;66218;48.928;9.140;2023-05-06T06:22:59;4.68;;;2.72;;
77222;SDS011;66218;48.928;9.140;2023-05-06T06:25:25;5.00;;;2.80;;
77222;SDS011;66218;48.928;9.140;2023-05-06T06:27:50;8.52;;;2.83;;
77222;SDS011;66218;48.928;9.140;2023-05-06T06:30:15;7.75;;;3.20;;
77222;SDS011;66218;48.928;9.140;2023-05-06T06:32:49;6.97;;;3.25;;
77222;SDS011;66218;48.928;9.140;2023-05-06T06:35:16;4.13;;;2.58;;
77222;SDS011;66218;48.928;9.140;2023-05-06T06:37:43;4.30;;;2.42;;
77222;SDS011;66218;48.928;9.140;2023-05-06T06:40:09;5.47;;;2.55;;
77222;SDS011;66218;48.928;9.140;2023-05-06T06:42:35;5.13;;;2.67;;
77222;SDS011;66218;48.928;9.140;2023-05-06T06:45:01;6.82;;;3.08;;
77222;SDS011;66218;48.928;9.140;2023-05-06T06:47:26;4.65;;;3.08;;
77222;SDS011;66218;48.928;9.140;2023-05-06T06:49:51;5.00;;;2.88;;
77222;SDS011;66218;48.928;9.140;2023-05-06T06:52:17;5.32;;;3.65;;
77222;SDS011;66218;48.928;9.140;2023-05-06T06:54:42;5.65;;;3.22;;
77222;SDS011;66218;48.928;9.140;2023-05-06T06:57:07;6.38;;;3.10;;
77222;SDS011;66218;48.928;9.140;2023-05-06T06:59:33;5.80;;;3.13;;
77222;SDS011;66218;48.928;9.140;2023-05-06T07:01:58;5.80;;;3.58;;
77222;SDS011;66218;48.928;9.140;2023-05-06T07:04:23;5.18;;;2.83;;
77222;SDS011;66218;48.928;9.140;2023-05-06T07:06:49;6.90;;;2.92;;
77222;SDS011;66218;48.928;9.140;2023-05-06T07:09:15;6.05;;;3.35;;
77222;SDS011;66218;48.928;9.140;2023-05-06T07:11:40;6.32;;;3.35;;
77222;SDS011;66218;48.928;9.140;2023-05-06T07:14:06;4.03;;;2.50;;
77222;SDS011;66218;48.928;9.140;2023-05-06T07:16:31;5.50;;;2.95;;
77222;SDS011;66218;48.928;9.140;2023-05-06T07:18:57;4.80;;;3.13;;
77222;SDS011;66218;48.928;9.140;2023-05-06T07:21:22;6.05;;;2.97;;
77222;SDS011;66218;48.928;9.140;2023-05-06T07:23:47;4.28;;;2.58;;
77222;SDS011;66218;48.928;9.140;2023-05-06T07:26:13;5.00;;;2.75;;
77222;SDS011;66218;48.928;9.140;2023-05-06T07:28:38;3.92;;;2.58;;
77222;SDS011;66218;48.928;9.140;2023-05-06T07:31:03;4.43;;;2.40;;
77222;SDS011;66218;48.928;9.140;2023-05-06T07:33:29;3.70;;;2.38;;
77222;SDS011;66218;48.928;9.140;2023-05-06T07:35:54;3.35;;;1.98;;
77222;SDS011;66218;48.928;9.140;2023-05-06T07:38:23;3.70;;;1.95;;
77222;SDS011;66218;48.928;9.140;2023-05-06T07:40:49;5.30;;;2.00;;
77222;SDS011;66218;48.928;9.140;2023-05-06T07:43:15;3.50;;;2.40;;
77222;SDS011;66218;48.928;9.140;2023-05-06T07:45:41;3.83;;;2.13;;
77222;SDS011;66218;48.928;9.140;2023-05-06T07:48:06;4.65;;;2.00;;
77222;SDS011;66218;48.928;9.140;2023-05-06T07:50:34;4.65;;;1.92;;
77222;SDS011;66218;48.928;9.140;2023-05-06T07:53:00;4.10;;;1.70;;
77222;SDS011;66218;48.928;9.140;2023-05-06T07:55:25;3.65;;;1.88;;
77222;SDS011;66218;48.928;9.140;2023-05-06T07:57:51;4.10;;;1.92;;
77222;SDS011;66218;48.928;9.140;2023-05-06T08:00:17;2.60;;;1.92;;
77222;SDS011;66218;48.928;9.140;2023-05-06T08:02:42;3.00;;;1.60;;
77222;SDS011;66218;48.928;9.140;2023-05-06T08:05:11;3.17;;;1.73;;
77222;SDS011;66218;48.928;9.140;2023-05-06T08:07:38;3.47;;;1.92;;
77222;SDS011;66218;48.928;9.140;2023-05-06T08:10:05;3.78;;;1.83;;
77222;SDS011;66218;48.928;9.140;2023-05-06T08:12:31;3.95;;;1.88;;
77222;SDS011;66218;48.928;9.140;2023-05-06T08:14:57;4.28;;;1.80;;
77222;SDS011;66218;48.928;9.140;2023-05-06T08:17:22;5.97;;;1.90;;
77222;SDS011;66218;48.928;9.140;2023-05-06T08:19:47;3.08;;;1.55;;
77222;SDS011;66218;48.928;9.140;2023-05-06T08:22:13;2.47;;;1.40;;
77222;SDS011;66218;48.928;9.140;2023-05-06T08:24:40;2.83;;;1.70;;
77222;SDS011;66218;48.928;9.140;2023-05-06T08:27:05;1.75;;;1.40;;
77222;SDS011;66218;48.928;9.140;2023-05-06T08:29:31;3.08;;;1.60;;
77222;SDS011;66218;48.928;9.140;2023-05-06T08:31:56;3.20;;;1.52;;
77222;SDS011;66218;48.928;9.140;2023-05-06T08:34:21;2.15;;;1.00;;
77222;SDS011;66218;48.928;9.140;2023-05-06T08:36:47;1.50;;;0.95;;
77222;SDS011;66218;48.928;9.140;2023-05-06T08:39:12;3.90;;;1.42;;
77222;SDS011;66218;48.928;9.140;2023-05-06T08:41:41;2.35;;;1.35;;
77222;SDS011;66218;48.928;9.140;2023-05-06T08:44:11;2.55;;;1.27;;
77222;SDS011;66218;48.928;9.140;2023-05-06T08:48:28;2.63;;;1.67;;
77222;SDS011;66218;48.928;9.140;2023-05-06T08:50:54;1.52;;;1.13;;
77222;SDS011;66218;48.928;9.140;2023-05-06T08:53:21;2.42;;;1.33;;
77222;SDS011;66218;48.928;9.140;2023-05-06T08:55:46;4.20;;;1.40;;
77222;SDS011;66218;48.928;9.140;2023-05-06T08:58:13;2.83;;;1.13;;
77222;SDS011;66218;48.928;9.140;2023-05-06T09:00:41;1.92;;;1.00;;
77222;SDS011;66218;48.928;9.140;2023-05-06T09:03:07;3.20;;;1.05;;
77222;SDS011;66218;48.928;9.140;2023-05-06T09:05:32;2.08;;;1.20;;
77222;SDS011;66218;48.928;9.140;2023-05-06T09:07:57;2.20;;;1.00;;
77222;SDS011;66218;48.928;9.140;2023-05-06T09:10:22;1.58;;;1.00;;
77222;SDS011;66218;48.928;9.140;2023-05-06T09:12:48;2.45;;;0.95;;
77222;SDS011;66218;48.928;9.140;2023-05-06T09:15:13;3.00;;;1.50;;
77222;SDS011;66218;48.928;9.140;2023-05-06T09:17:38;2.90;;;1.50;;
77222;SDS011;66218;48.928;9.140;2023-05-06T09:20:04;2.28;;;1.10;;
77222;SDS011;66218;48.928;9.140;2023-05-06T09:22:33;2.10;;;1.15;;
77222;SDS011;66218;48.928;9.140;2023-05-06T09:25:02;1.75;;;1.08;;
77222;SDS011;66218;48.928;9.140;2023-05-06T09:27:29;2.75;;;1.30;;
77222;SDS011;66218;48.928;9.140;2023-05-06T09:30:01;1.08;;;0.80;;
77222;SDS011;66218;48.928;9.140;2023-05-06T09:32:36;1.85;;;1.10;;
77222;SDS011;66218;48.928;9.140;2023-05-06T09:35:01;1.30;;;0.90;;
77222;SDS011;66218;48.928;9.140;2023-05-06T09:37:27;2.15;;;1.23;;
77222;SDS011;66218;48.928;9.140;2023-05-06T09:39:53;1.98;;;1.10;;
77222;SDS011;66218;48.928;9.140;2023-05-06T09:42:23;3.17;;;0.80;;
77222;SDS011;66218;48.928;9.140;2023-05-06T09:44:52;1.13;;;0.77;;
77222;SDS011;66218;48.928;9.140;2023-05-06T09:47:25;1.17;;;0.77;;
77222;SDS011;66218;48.928;9.140;2023-05-06T09:49:55;1.20;;;0.80;;
77222;SDS011;66218;48.928;9.140;2023-05-06T09:52:23;1.35;;;0.80;;
77222;SDS011;66218;48.928;9.140;2023-05-06T09:54:50;3.70;;;0.90;;
77222;SDS011;66218;48.928;9.140;2023-05-06T09:57:16;1.92;;;0.90;;
77222;SDS011;66218;48.928;9.140;2023-05-06T09:59:42;1.95;;;0.85;;
77222;SDS011;66218;48.928;9.140;2023-05-06T10:02:10;2.55;;;1.13;;
77222;SDS011;66218;48.928;9.140;2023-05-06T10:04:36;1.35;;;0.80;;
77222;SDS011;66218;48.928;9.140;2023-05-06T10:07:05;1.30;;;0.90;;
77222;SDS011;66218;48.928;9.140;2023-05-06T10:09:32;1.13;;;0.73;;
77222;SDS011;66218;48.928;9.140;2023-05-06T10:11:59;2.03;;;1.00;;
77222;SDS011;66218;48.928;9.140;2023-05-06T10:14:26;1.58;;;0.77;;
77222;SDS011;66218;48.928;9.140;2023-05-06T10:16:52;0.73;;;0.73;;
77222;SDS011;66218;48.928;9.140;2023-05-06T10:19:19;2.15;;;1.00;;
77222;SDS011;66218;48.928;9.140;2023-05-06T10:21:50;2.50;;;1.05;;
77222;SDS011;66218;48.928;9.140;2023-05-06T10:24:19;0.82;;;0.70;;
77222;SDS011;66218;48.928;9.140;2023-05-06T10:26:53;2.22;;;0.80;;
77222;SDS011;66218;48.928;9.140;2023-05-06T10:29:20;1.33;;;0.82;;
77222;SDS011;66218;48.928;9.140;2023-05-06T10:31:51;0.85;;;0.70;;
77222;SDS011;66218;48.928;9.140;2023-05-06T10:34:18;1.13;;;0.80;;
77222;SDS011;66218;48.928;9.140;2023-05-06T10:36:46;2.53;;;0.70;;
77222;SDS011;66218;48.928;9.140;2023-05-06T10:39:14;0.77;;;0.60;;
77222;SDS011;66218;48.928;9.140;2023-05-06T10:44:06;2.58;;;1.42;;
77222;SDS011;66218;48.928;9.140;2023-05-06T10:46:31;1.13;;;0.70;;
77222;SDS011;66218;48.928;9.140;2023-05-06T10:49:26;1.30;;;0.90;;
77222;SDS011;66218;48.928;9.140;2023-05-06T10:52:07;0.93;;;0.65;;
77222;SDS011;66218;48.928;9.140;2023-05-06T10:54:45;1.58;;;0.90;;
77222;SDS011;66218;48.928;9.140;2023-05-06T10:57:13;2.40;;;0.80;;
77222;SDS011;66218;48.928;9.140;2023-05-06T10:59:40;1.95;;;0.50;;
77222;SDS011;66218;48.928;9.140;2023-05-06T11:02:10;2.35;;;1.00;;
77222;SDS011;66218;48.928;9.140;2023-05-06T11:04:35;1.05;;;0.70;;
77222;SDS011;66218;48.928;9.140;2023-05-06T11:15:23;1.27;;;0.77;;
77222;SDS011;66218;48.928;9.140;2023-05-06T11:18:43;0.93;;;0.60;;
77222;SDS011;66218;48.928;9.140;2023-05-06T11:26:11;1.08;;;0.60;;
77222;SDS011;66218;48.928;9.140;2023-05-06T11:28:38;1.27;;;0.60;;
77222;SDS011;66218;48.928;9.140;2023-05-06T11:31:04;1.10;;;0.70;;
77222;SDS011;66218;48.928;9.140;2023-05-06T11:33:33;0.73;;;0.60;;
77222;SDS011;66218;48.928;9.140;2023-05-06T11:36:00;1.63;;;0.70;;
77222;SDS011;66218;48.928;9.140;2023-05-06T11:38:43;1.70;;;0.90;;
77222;SDS011;66218;48.928;9.140;2023-05-06T11:41:10;1.88;;;1.25;;
77222;SDS011;66218;48.928;9.140;2023-05-06T11:43:36;1.20;;;0.90;;
77222;SDS011;66218;48.928;9.140;2023-05-06T11:46:02;1.80;;;0.90;;
77222;SDS011;66218;48.928;9.140;2023-05-06T11:48:27;1.23;;;0.90;;
77222;SDS011;66218;48.928;9.140;2023-05-06T11:50:53;1.95;;;0.68;;
77222;SDS011;66218;48.928;9.140;2023-05-06T11:53:19;1.38;;;0.98;;
77222;SDS011;66218;48.928;9.140;2023-05-06T11:55:47;1.52;;;0.75;;
77222;SDS011;66218;48.928;9.140;2023-05-06T11:58:14;3.10;;;0.63;;
77222;SDS011;66218;48.928;9.140;2023-05-06T12:00:47;1.15;;;0.65;;
77222;SDS011;66218;48.928;9.140;2023-05-06T12:03:18;1.25;;;0.68;;
77222;SDS011;66218;48.928;9.140;2023-05-06T12:05:44;1.23;;;0.60;;
77222;SDS011;66218;48.928;9.140;2023-05-06T12:08:14;1.75;;;0.60;;
77222;SDS011;66218;48.928;9.140;2023-05-06T12:10:40;1.48;;;0.60;;
77222;SDS011;66218;48.928;9.140;2023-05-06T12:13:06;0.73;;;0.63;;
77222;SDS011;66218;48.928;9.140;2023-05-06T12:15:32;2.10;;;0.63;;
77222;SDS011;66218;48.928;9.140;2023-05-06T12:17:59;2.80;;;0.70;;
77222;SDS011;66218;48.928;9.140;2023-05-06T12:20:25;2.35;;;0.57;;
77222;SDS011;66218;48.928;9.140;2023-05-06T12:23:06;3.53;;;0.93;;
77222;SDS011;66218;48.928;9.140;2023-05-06T12:25:39;0.73;;;0.73;;
77222;SDS011;66218;48.928;9.140;2023-05-06T12:28:12;1.30;;;0.68;;
77222;SDS011;66218;48.928;9.140;2023-05-06T12:30:41;1.38;;;0.80;;
77222;SDS011;66218;48.928;9.140;2023-05-06T12:33:06;1.48;;;1.05;;
77222;SDS011;66218;48.928;9.140;2023-05-06T12:35:33;2.65;;;0.85;;
77222;SDS011;66218;48.928;9.140;2023-05-06T12:38:12;1.02;;;0.63;;
77222;SDS011;66218;48.928;9.140;2023-05-06T12:40:39;3.53;;;1.20;;
77222;SDS011;66218;48.928;9.140;2023-05-06T12:43:05;2.38;;;1.02;;
77222;SDS011;66218;48.928;9.140;2023-05-06T12:45:31;1.40;;;0.90;;
77222;SDS011;66218;48.928;9.140;2023-05-06T12:47:58;1.85;;;0.98;;
77222;SDS011;66218;48.928;9.140;2023-05-06T12:50:29;1.60;;;0.80;;
77222;SDS011;66218;48.928;9.140;2023-05-06T12:53:05;1.40;;;0.77;;
77222;SDS011;66218;48.928;9.140;2023-05-06T12:55:33;2.42;;;0.82;;
77222;SDS011;66218;48.928;9.140;2023-05-06T12:58:00;1.25;;;0.85;;
77222;SDS011;66218;48.928;9.140;2023-05-06T13:00:25;1.67;;;0.75;;
77222;SDS011;66218;48.928;9.140;2023-05-06T13:02:51;2.28;;;1.00;;
77222;SDS011;66218;48.928;9.140;2023-05-06T13:05:16;0.80;;;0.80;;
77222;SDS011;66218;48.928;9.140;2023-05-06T13:07:42;1.10;;;0.93;;
77222;SDS011;66218;48.928;9.140;2023-05-06T13:10:07;1.25;;;0.80;;
77222;SDS011;66218;48.928;9.140;2023-05-06T13:12:33;1.08;;;0.77;;
77222;SDS011;66218;48.928;9.140;2023-05-06T13:14:58;1.60;;;0.70;;
77222;SDS011;66218;48.928;9.140;2023-05-06T13:17:24;1.52;;;0.95;;
77222;SDS011;66218;48.928;9.140;2023-05-06T13:22:16;0.98;;;0.70;;
77222;SDS011;66218;48.928;9.140;2023-05-06T13:24:41;0.88;;;0.82;;
77222;SDS011;66218;48.928;9.140;2023-05-06T13:27:07;2.55;;;0.70;;
77222;SDS011;66218;48.928;9.140;2023-05-06T13:29:32;2.50;;;0.88;;
77222;SDS011;66218;48.928;9.140;2023-05-06T13:31:57;0.95;;;0.57;;
77222;SDS011;66218;48.928;9.140;2023-05-06T13:34:23;1.80;;;0.70;;
77222;SDS011;66218;48.928;9.140;2023-05-06T13:36:48;1.00;;;0.77;;
77222;SDS011;66218;48.928;9.140;2023-05-06T13:41:44;0.82;;;0.52;;
77222;SDS011;66218;48.928;9.140;2023-05-06T13:44:11;0.52;;;0.50;;
77222;SDS011;66218;48.928;9.140;2023-05-06T13:46:36;0.73;;;0.57;;
77222;SDS011;66218;48.928;9.140;2023-05-06T13:49:01;0.93;;;0.75;;
77222;SDS011;66218;48.928;9.140;2023-05-06T13:51:27;0.75;;;0.73;;
77222;SDS011;66218;48.928;9.140;2023-05-06T13:53:54;3.13;;;0.70;;
77222;SDS011;66218;48.928;9.140;2023-05-06T13:56:20;2.30;;;0.85;;
77222;SDS011;66218;48.928;9.140;2023-05-06T13:58:45;1.83;;;0.77;;
77222;SDS011;66218;48.928;9.140;2023-05-06T14:03:36;1.10;;;0.70;;
77222;SDS011;66218;48.928;9.140;2023-05-06T14:06:01;1.00;;;0.55;;
77222;SDS011;66218;48.928;9.140;2023-05-06T14:08:27;1.48;;;0.65;;
77222;SDS011;66218;48.928;9.140;2023-05-06T14:10:52;0.75;;;0.47;;
77222;SDS011;66218;48.928;9.140;2023-05-06T14:13:17;1.83;;;0.65;;
77222;SDS011;66218;48.928;9.140;2023-05-06T14:15:43;1.05;;;0.70;;
77222;SDS011;66218;48.928;9.140;2023-05-06T14:18:08;1.25;;;0.52;;
77222;SDS011;66218;48.928;9.140;2023-05-06T14:20:33;0.65;;;0.57;;
77222;SDS011;66218;48.928;9.140;2023-05-06T14:22:59;1.15;;;0.60;;
77222;SDS011;66218;48.928;9.140;2023-05-06T14:25:24;0.70;;;0.50;;
77222;SDS011;66218;48.928;9.140;2023-05-06T14:27:54;0.85;;;0.57;;
77222;SDS011;66218;48.928;9.140;2023-05-06T14:30:20;1.35;;;0.60;;
77222;SDS011;66218;48.928;9.140;2023-05-06T14:32:45;1.55;;;0.60;;
77222;SDS011;66218;48.928;9.140;2023-05-06T14:35:11;1.27;;;0.60;;
77222;SDS011;66218;48.928;9.140;2023-05-06T14:37:36;2.22;;;0.30;;
77222;SDS011;66218;48.928;9.140;2023-05-06T14:40:02;0.47;;;0.32;;
77222;SDS011;66218;48.928;9.140;2023-05-06T14:42:28;0.57;;;0.50;;
77222;SDS011;66218;48.928;9.140;2023-05-06T14:44:54;2.08;;;0.47;;
77222;SDS011;66218;48.928;9.140;2023-05-06T14:47:20;1.15;;;0.50;;
77222;SDS011;66218;48.928;9.140;2023-05-06T14:49:45;2.17;;;0.60;;
77222;SDS011;66218;48.928;9.140;2023-05-06T14:52:10;1.23;;;0.40;;
77222;SDS011;66218;48.928;9.140;2023-05-06T14:54:36;1.92;;;0.55;;
77222;SDS011;66218;48.928;9.140;2023-05-06T14:57:06;1.83;;;0.45;;
77222;SDS011;66218;48.928;9.140;2023-05-06T14:59:32;0.70;;;0.40;;
77222;SDS011;66218;48.928;9.140;2023-05-06T15:01:57;1.70;;;0.60;;
77222;SDS011;66218;48.928;9.140;2023-05-06T15:04:22;1.00;;;0.60;;
77222;SDS011;66218;48.928;9.140;2023-05-06T15:06:48;1.08;;;0.45;;
77222;SDS011;66218;48.928;9.140;2023-05-06T15:11:38;0.60;;;0.30;;
77222;SDS011;66218;48.928;9.140;2023-05-06T15:14:03;0.70;;;0.40;;
77222;SDS011;66218;48.928;9.140;2023-05-06T15:16:29;0.82;;;0.30;;
77222;SDS011;66218;48.928;9.140;2023-05-06T15:18:54;1.58;;;0.60;;
77222;SDS011;66218;48.928;9.140;2023-05-06T15:21:19;0.60;;;0.40;;
77222;SDS011;66218;48.928;9.140;2023-05-06T15:23:45;1.38;;;0.40;;
77222;SDS011;66218;48.928;9.140;2023-05-06T15:26:11;0.65;;;0.30;;